Latest Coastal Weather Observations for Gabo Island

IDV60701

Issued at 7:11 pm EDT Saturday 29 February 2020 (issued every 10 minutes, with the page automatically refreshed every 10 minutes)

About coastal observations | Map of coastal stations | Coastal observations for VIC | Marine services | Other Formats
Station Details ID: 084016 Name: GABO ISLAND LIGHTHOUSE Lat: -37.57 Lon: 149.92 Height: 15.0 m
Data from the previous 72 hours. | See also: Recent months at Gabo Island
Date/Time
EDT
Wind Sea
Height
m
Swell Vis
km
Cloud Weather Temp
°C
Press
hPa
Rain since
9am
mm
Dir  Spd
kts
Gust
kts
Height
m
Period
s
Dir
29/07:00pm NNE 19 23 - - - - - - - 20.4 1013.1 0.0
29/06:30pm NNE 20 24 - - - - - - - 20.9 1012.9 0.0
29/06:00pm NE 20 24 - - - - - - - 20.8 1012.8 0.0
29/05:30pm NE 20 24 - - - - - - - 21.0 1012.8 0.0
29/05:00pm NE 19 23 - - - - - - - 21.1 1012.7 0.0
29/04:30pm NE 20 23 - - - - - - - 21.4 1012.8 0.0
29/04:00pm NE 20 24 - - - - - - - 21.5 1013.0 0.0
29/03:30pm NE 19 22 - - - - - - - 21.7 1013.1 0.0
29/03:00pm NE 19 23 1 1.1 10 SE 1 Clear Fine 21.4 1013.4 0.0
29/02:30pm NNE 20 24 - - - - - - - 21.6 1013.8 0.0
29/02:00pm NE 20 23 - - - - - - - 21.1 1013.9 0.0
29/01:30pm NE 20 25 - - - - - - - 20.8 1014.1 0.0
29/01:00pm NE 19 23 - - - - - - - 20.7 1014.5 0.0
29/12:30pm NE 19 23 - - - - - - - 20.9 1014.6 0.0
29/12:00pm NE 21 24 - - - - - - - 20.4 1014.8 0.0
29/11:30am NE 22 25 - - - - - - - 20.5 1015.0 0.0
29/11:00am NE 18 22 - - - - - - - 20.2 1015.2 0.0
29/10:30am NE 19 24 - - - - - - - 20.0 1015.3 0.0
29/10:00am NE 15 18 - - - - - - - 19.0 1015.6 0.0
29/09:30am NE 15 18 - - - - - - - 19.0 1015.5 0.0
29/09:00am NNE 11 14 1 1.2 8 SW 0.5 Clear Fine 19.5 1015.7 0.0
29/08:30am NNE 8 11 - - - - - - - 18.7 1016.0 0.0
29/08:00am NE 2 4 - - - - - - - 16.4 1016.1 0.0
29/07:30am N 6 7 - - - - - - - 16.2 1016.0 0.0
29/07:00am N 4 6 - - - - - - - 16.1 1015.9 0.0
29/06:30am N 6 7 - - - - - - - 15.1 1015.7 0.0
29/06:00am N 7 9 - - - - - - - 16.0 1015.6 0.0
29/05:30am N 7 9 - - - - - - - 15.8 1015.8 0.0
29/05:00am NNE 5 6 - - - - - - - 16.3 1015.8 0.0
29/04:30am NE 8 9 - - - - - - - 17.0 1016.0 0.0
29/04:00am NNE 7 8 - - - - - - - 17.3 1016.4 0.0
29/03:30am N 5 6 - - - - - - - 16.7 1016.6 0.0
29/03:00am N 4 4 1 1.2 8 SW 15 Clear Fine 16.4 1016.7 0.0
29/02:30am NNW 5 6 - - - - - - - 16.5 1016.9 0.0
29/02:00am NNW 5 6 - - - - - - - 16.5 1017.2 0.0
29/01:30am NNW 5 7 - - - - - - - 16.4 1017.4 0.0
29/01:00am NW 6 7 - - - - - - - 16.2 1017.6 0.0
29/12:30am NW 6 8 - - - - - - - 16.2 1017.6 0.0
29/12:00am NW 5 7 - - - - - - - 16.3 1017.5 0.0
 
Date/Time
EDT
Wind Sea
Height
m
Swell Vis
km
Cloud Weather Temp
°C
Press
hPa
Rain since
9am
mm
Dir  Spd
kts
Gust
kts
Height
m
Period
s
Dir
28/11:30pm WNW 5 7 - - - - - - - 16.5 1017.5 0.0
28/11:00pm WNW 7 8 - - - - - - - 15.9 1017.2 0.0
28/10:30pm WNW 6 8 - - - - - - - 16.3 1017.2 0.0
28/10:00pm SW 10 12 - - - - - - - 17.3 1017.2 0.0
28/09:30pm SW 13 15 - - - - - - - 17.5 1016.9 0.0
28/09:00pm SW 11 14 - - - - - - - 17.4 1016.4 0.0
28/08:30pm SW 17 20 - - - - - - - 17.5 1015.7 0.0
28/08:00pm SW 19 22 - - - - - - - 17.5 1015.2 0.0
28/07:30pm SSW 21 24 - - - - - - - 17.6 1014.2 0.0
28/07:00pm SSW 21 23 - - - - - - - 17.7 1014.0 0.0
28/06:30pm SSW 22 26 - - - - - - - 17.8 1013.7 0.0
28/06:00pm SSW 23 26 - - - - - - - 17.8 1013.4 0.0
28/05:30pm SSW 24 29 - - - - - - - 18.0 1013.2 0.0
28/05:00pm SSW 25 29 - - - - - - - 18.0 1012.9 0.0
28/04:30pm SW 28 32 - - - - - - - 18.0 1013.0 0.0
28/04:00pm SW 27 31 - - - - - - - 18.0 1013.2 0.0
28/03:30pm SW 26 31 - - - - - - - 18.0 1013.2 0.0
28/03:00pm SW 29 33 - - - - - - - 17.6 1013.3 0.0
28/02:30pm SW 29 35 - - - - - - - 17.5 1013.4 0.0
28/02:00pm SW 31 36 - - - - - - - 17.5 1013.0 0.0
28/01:30pm SSW 31 37 - - - - - - - 16.8 1012.8 0.0
28/01:00pm SW 30 35 - - - - - - - 17.6 1012.4 0.0
28/12:30pm SW 28 33 - - - - - - - 18.2 1012.6 0.0
28/12:00pm SW 29 33 - - - - - - - 17.9 1012.7 0.0
28/11:30am SW 28 33 - - - - - - - 18.2 1012.5 0.0
28/11:00am SW 28 32 - - - - - - - 18.3 1012.4 0.0
28/10:30am SW 26 32 - - - - - - - 18.5 1012.3 0.0
28/10:00am WSW 25 31 - - - - - - - 18.3 1012.0 0.0
28/09:35am WSW 22 32 - - - - - - - 17.9 1012.0 0.0
28/09:30am WSW 22 28 - - - - - - - 17.8 1012.0 0.0
28/09:00am WSW 19 23 1 1.0 6 SW 40 Cloudy Fine 17.1 1011.9 0.0
28/08:30am SW 21 30 - - - - - - - 16.9 1011.4 0.0
28/08:29am WSW 20 30 - - - - - - - 16.9 1011.4 0.0
28/08:00am WSW 21 26 - - - - - - - 17.2 1010.9 0.0
28/07:30am WSW 16 21 - - - - - - - 16.9 1010.6 0.0
28/07:00am WSW 18 22 - - - - - - - 16.6 1010.0 0.0
28/06:30am WSW 19 24 - - - - - - - 17.0 1009.6 0.0
28/06:00am WSW 15 22 - - - - - - - 16.9 1009.3 0.0
28/05:30am W 11 13 - - - - - - - 15.8 1008.9 0.0
28/05:00am WNW 11 15 - - - - - - - 15.6 1008.7 0.0
28/04:30am W 11 14 - - - - - - - 16.1 1008.8 0.0
28/04:00am WNW 9 12 - - - - - - - 15.9 1008.6 0.0
28/03:30am WNW 9 11 - - - - - - - 16.1 1008.6 0.0
28/03:00am WNW 8 11 1 0.5 9 S 40 Partly cloudy Fine 16.1 1008.6 0.0
28/02:30am NW 8 11 - - - - - - - 15.8 1008.4 0.0
28/02:00am NW 8 11 - - - - - - - 16.1 1008.7 0.0
28/01:30am WNW 9 12 - - - - - - - 16.3 1009.4 0.0
28/01:00am WNW 8 10 - - - - - - - 16.5 1009.3 0.0
28/12:30am WNW 9 12 - - - - - - - 16.4 1009.3 0.0
28/12:00am WNW 8 10 - - - - - - - 16.2 1009.6 0.0
 
Date/Time
EDT
Wind Sea
Height
m
Swell Vis
km
Cloud Weather Temp
°C
Press
hPa
Rain since
9am
mm
Dir  Spd
kts
Gust
kts
Height
m
Period
s
Dir
27/11:30pm NW 7 9 - - - - - - - 15.7 1009.8 0.0
27/11:00pm NNW 6 7 - - - - - - - 14.7 1009.8 0.0
27/10:30pm NNW 6 7 - - - - - - - 14.9 1010.1 0.0
27/10:00pm W 7 9 - - - - - - - 16.3 1010.4 0.0
27/09:30pm WSW 7 9 - - - - - - - 16.6 1010.4 0.0
27/09:00pm SW 9 11 1 0.5 9 S 50 Mostly cloudy Fine 17.3 1010.2 0.0
27/08:30pm SW 10 11 - - - - - - - 17.3 1009.7 0.0
27/08:00pm SSW 9 11 - - - - - - - 17.4 1009.4 0.0
27/07:30pm SSW 8 11 - - - - - - - 17.2 1009.1 0.0
27/07:00pm SSW 8 11 - - - - - - - 17.4 1008.9 0.0
27/06:30pm SSW 10 12 - - - - - - - 17.8 1008.4 0.0
27/06:00pm SSW 12 15 - - - - - - - 17.9 1008.6 0.0
27/05:30pm SSW 12 14 - - - - - - - 17.8 1008.4 0.0
27/05:00pm SSW 13 15 - - - - - - - 17.8 1008.3 0.0
27/04:30pm SSW 11 16 - - - - - - - 18.7 1008.2 0.0
27/04:00pm SSW 11 15 - - - - - - - 18.8 1008.3 0.0
27/03:30pm S 11 13 - - - - - - - 18.7 1008.4 0.0
27/03:00pm S 8 10 - - - - - - - 18.8 1008.7 0.0
27/02:30pm S 9 12 - - - - - - - 18.8 1009.1 0.0
27/02:00pm SSW 10 13 - - - - - - - 18.4 1009.5 0.0
27/01:30pm SSW 12 15 - - - - - - - 18.7 1009.8 0.0
27/01:00pm SSW 12 14 - - - - - - - 18.8 1010.2 0.0
27/12:30pm SSW 13 17 - - - - - - - 17.4 1010.2 0.0
27/12:00pm S 10 13 - - - - - - - 18.6 1010.7 0.0
27/11:30am SSW 5 7 - - - - - - - 17.8 1011.2 0.0
27/11:00am SW 5 8 - - - - - - - 17.5 1011.4 0.0
27/10:30am W 6 8 - - - - - - - 17.2 1011.6 0.0
27/10:00am W 9 11 - - - - - - - 15.7 1011.7 0.0
27/09:30am W 11 15 - - - - - - - 15.9 1011.6 0.0
27/09:00am WNW 10 13 1 1.0 9 S 50 Mostly clear Fine 15.7 1011.9 0.0
27/08:30am WNW 7 10 - - - - - - - 14.9 1011.8 0.0
27/08:00am W 7 9 - - - - - - - 14.2 1011.5 0.0
27/07:30am NNW 6 10 - - - - - - - 13.2 1011.7 0.0
27/07:00am NW 9 12 - - - - - - - 12.9 1011.4 0.0
27/06:30am NW 8 13 - - - - - - - 12.7 1010.9 0.0
27/06:00am WNW 11 15 - - - - - - - 13.1 1010.6 0.0
27/05:30am WNW 13 16 - - - - - - - 13.3 1010.5 0.0
27/05:00am WNW 11 15 - - - - - - - 13.3 1010.6 0.0
27/04:30am WNW 13 17 - - - - - - - 13.4 1010.7 0.0
27/04:00am W 16 20 - - - - - - - 13.9 1011.0 0.0
27/03:30am W 15 19 - - - - - - - 14.1 1011.1 0.0
27/03:00am W 19 24 1 1.5 7 SW 30 Mostly clear Fine 14.5 1010.6 0.0
27/02:30am W 19 23 - - - - - - - 14.6 1010.5 0.0
27/02:00am W 16 19 - - - - - - - 14.7 1010.9 0.0
27/01:30am W 16 19 - - - - - - - 14.7 1010.7 0.0
27/01:00am WSW 17 26 - - - - - - - 15.4 1010.7 0.0
27/12:58am WSW 19 29 - - - - - - - 15.5 1010.7 0.0
27/12:30am SW 27 33 - - - - - - - 16.5 1010.6 0.0
27/12:00am WSW 24 30 - - - - - - - 16.2 1010.8 0.0
 
Date/Time
EDT
Wind Sea
Height
m
Swell Vis
km
Cloud Weather Temp
°C
Press
hPa
Rain since
9am
mm
Dir  Spd
kts
Gust
kts
Height
m
Period
s
Dir
26/11:30pm WSW 24 29 - - - - - - - 16.4 1010.9 0.0
26/11:00pm SW 26 33 - - - - - - - 16.5 1010.9 0.0
26/10:30pm SW 24 32 - - - - - - - 16.5 1011.1 0.0
26/10:00pm SW 26 33 - - - - - - - 16.7 1011.0 0.0
26/09:30pm SW 28 32 - - - - - - - 16.6 1010.9 0.0
26/09:00pm SW 27 33 2 2.0 7 SW 25 Mostly clear Fine 16.6 1010.3 0.0
26/08:30pm SW 29 35 - - - - - - - 16.6 1009.7 0.0
26/08:00pm SW 29 37 - - - - - - - 16.7 1009.3 0.0
26/07:30pm SW 31 37 - - - - - - - 17.0 1008.6 0.0

Other formats

Comma delimited format used in spreadsheet applications
http://www.bom.gov.au/fwo/IDV60701/IDV60701.94933.axf

JavaScript Object Notation format (JSON) in row-major order
http://www.bom.gov.au/fwo/IDV60701/IDV60701.94933.json

Data quality

Most of these data are generated automatically and are frequently updated. Quality checks on data are not normally performed. It is possible for incorrect values to appear. Refer to information at About Latest Weather Observations and please check the disclaimer before using these data.